sensor_id;sensor_type;location;lat;lon;timestamp;P1;durP1;ratioP1;P2;durP2;ratioP2
4278;SDS011;2153;47.744;10.580;2023-02-15T00:01:29;24.80;;;5.67;;
4278;SDS011;2153;47.744;10.580;2023-02-15T00:03:56;14.63;;;4.70;;
4278;SDS011;2153;47.744;10.580;2023-02-15T00:06:23;20.30;;;5.23;;
4278;SDS011;2153;47.744;10.580;2023-02-15T00:08:49;14.40;;;4.60;;
4278;SDS011;2153;47.744;10.580;2023-02-15T00:11:17;16.50;;;4.90;;
4278;SDS011;2153;47.744;10.580;2023-02-15T00:14:06;14.40;;;4.60;;
4278;SDS011;2153;47.744;10.580;2023-02-15T00:16:34;16.07;;;5.20;;
4278;SDS011;2153;47.744;10.580;2023-02-15T00:19:01;15.83;;;4.63;;
4278;SDS011;2153;47.744;10.580;2023-02-15T00:21:28;12.90;;;4.30;;
4278;SDS011;2153;47.744;10.580;2023-02-15T00:23:55;16.33;;;5.30;;
4278;SDS011;2153;47.744;10.580;2023-02-15T00:26:23;16.67;;;5.00;;
4278;SDS011;2153;47.744;10.580;2023-02-15T00:28:50;14.43;;;4.87;;
4278;SDS011;2153;47.744;10.580;2023-02-15T00:31:18;15.00;;;4.70;;
4278;SDS011;2153;47.744;10.580;2023-02-15T00:33:45;13.40;;;4.07;;
4278;SDS011;2153;47.744;10.580;2023-02-15T00:36:12;14.77;;;5.37;;
4278;SDS011;2153;47.744;10.580;2023-02-15T00:38:39;18.13;;;4.90;;
4278;SDS011;2153;47.744;10.580;2023-02-15T00:41:06;15.60;;;5.00;;
4278;SDS011;2153;47.744;10.580;2023-02-15T00:43:34;14.60;;;3.57;;
4278;SDS011;2153;47.744;10.580;2023-02-15T00:46:02;19.83;;;5.40;;
4278;SDS011;2153;47.744;10.580;2023-02-15T00:48:31;14.30;;;4.50;;
4278;SDS011;2153;47.744;10.580;2023-02-15T00:50:58;17.43;;;4.83;;
4278;SDS011;2153;47.744;10.580;2023-02-15T00:53:26;13.80;;;3.93;;
4278;SDS011;2153;47.744;10.580;2023-02-15T00:55:54;12.60;;;3.97;;
4278;SDS011;2153;47.744;10.580;2023-02-15T00:58:21;13.73;;;3.83;;
4278;SDS011;2153;47.744;10.580;2023-02-15T01:00:48;13.37;;;4.00;;
4278;SDS011;2153;47.744;10.580;2023-02-15T01:03:16;17.27;;;4.53;;
4278;SDS011;2153;47.744;10.580;2023-02-15T01:05:46;14.07;;;4.37;;
4278;SDS011;2153;47.744;10.580;2023-02-15T01:08:13;15.20;;;4.13;;
4278;SDS011;2153;47.744;10.580;2023-02-15T01:10:40;14.57;;;4.63;;
4278;SDS011;2153;47.744;10.580;2023-02-15T01:13:08;13.00;;;3.90;;
4278;SDS011;2153;47.744;10.580;2023-02-15T01:15:35;14.23;;;3.80;;
4278;SDS011;2153;47.744;10.580;2023-02-15T01:18:02;15.57;;;4.20;;
4278;SDS011;2153;47.744;10.580;2023-02-15T01:20:29;14.00;;;3.73;;
4278;SDS011;2153;47.744;10.580;2023-02-15T01:23:01;13.33;;;4.00;;
4278;SDS011;2153;47.744;10.580;2023-02-15T01:25:28;15.30;;;4.30;;
4278;SDS011;2153;47.744;10.580;2023-02-15T01:27:54;12.70;;;3.53;;
4278;SDS011;2153;47.744;10.580;2023-02-15T01:30:21;12.07;;;3.33;;
4278;SDS011;2153;47.744;10.580;2023-02-15T01:32:48;13.20;;;4.10;;
4278;SDS011;2153;47.744;10.580;2023-02-15T01:35:14;16.10;;;3.93;;
4278;SDS011;2153;47.744;10.580;2023-02-15T01:37:41;12.77;;;3.57;;
4278;SDS011;2153;47.744;10.580;2023-02-15T01:40:11;13.47;;;3.40;;
4278;SDS011;2153;47.744;10.580;2023-02-15T01:42:41;13.07;;;3.37;;
4278;SDS011;2153;47.744;10.580;2023-02-15T01:45:14;12.93;;;3.87;;
4278;SDS011;2153;47.744;10.580;2023-02-15T01:47:47;13.47;;;3.93;;
4278;SDS011;2153;47.744;10.580;2023-02-15T01:50:18;13.00;;;3.93;;
4278;SDS011;2153;47.744;10.580;2023-02-15T01:52:48;13.97;;;3.87;;
4278;SDS011;2153;47.744;10.580;2023-02-15T01:55:20;13.00;;;3.67;;
4278;SDS011;2153;47.744;10.580;2023-02-15T01:57:48;16.93;;;4.00;;
4278;SDS011;2153;47.744;10.580;2023-02-15T02:00:16;12.13;;;3.37;;
4278;SDS011;2153;47.744;10.580;2023-02-15T02:02:45;15.70;;;3.60;;
4278;SDS011;2153;47.744;10.580;2023-02-15T02:05:15;11.13;;;3.10;;
4278;SDS011;2153;47.744;10.580;2023-02-15T02:07:42;14.53;;;3.90;;
4278;SDS011;2153;47.744;10.580;2023-02-15T02:10:12;14.20;;;3.57;;
4278;SDS011;2153;47.744;10.580;2023-02-15T02:12:45;12.17;;;3.20;;
4278;SDS011;2153;47.744;10.580;2023-02-15T02:15:14;14.30;;;3.60;;
4278;SDS011;2153;47.744;10.580;2023-02-15T02:17:43;12.53;;;3.40;;
4278;SDS011;2153;47.744;10.580;2023-02-15T02:20:33;12.93;;;3.57;;
4278;SDS011;2153;47.744;10.580;2023-02-15T02:26:37;11.70;;;2.93;;
4278;SDS011;2153;47.744;10.580;2023-02-15T02:29:28;12.00;;;3.00;;
4278;SDS011;2153;47.744;10.580;2023-02-15T02:32:17;13.70;;;2.93;;
4278;SDS011;2153;47.744;10.580;2023-02-15T02:35:08;13.00;;;3.43;;
4278;SDS011;2153;47.744;10.580;2023-02-15T02:37:39;13.07;;;3.77;;
4278;SDS011;2153;47.744;10.580;2023-02-15T02:40:15;10.30;;;2.70;;
4278;SDS011;2153;47.744;10.580;2023-02-15T02:42:49;11.10;;;3.10;;
4278;SDS011;2153;47.744;10.580;2023-02-15T02:45:21;13.80;;;3.03;;
4278;SDS011;2153;47.744;10.580;2023-02-15T02:47:55;12.40;;;3.10;;
4278;SDS011;2153;47.744;10.580;2023-02-15T02:50:27;13.47;;;3.17;;
4278;SDS011;2153;47.744;10.580;2023-02-15T02:52:56;13.60;;;3.03;;
4278;SDS011;2153;47.744;10.580;2023-02-15T02:55:25;12.73;;;3.20;;
4278;SDS011;2153;47.744;10.580;2023-02-15T02:57:55;12.37;;;2.70;;
4278;SDS011;2153;47.744;10.580;2023-02-15T03:00:27;11.50;;;2.90;;
4278;SDS011;2153;47.744;10.580;2023-02-15T03:02:59;12.47;;;3.10;;
4278;SDS011;2153;47.744;10.580;2023-02-15T03:05:31;10.57;;;2.33;;
4278;SDS011;2153;47.744;10.580;2023-02-15T03:08:00;12.33;;;2.43;;
4278;SDS011;2153;47.744;10.580;2023-02-15T03:10:31;11.63;;;2.77;;
4278;SDS011;2153;47.744;10.580;2023-02-15T03:13:01;12.10;;;2.90;;
4278;SDS011;2153;47.744;10.580;2023-02-15T03:15:29;11.60;;;2.83;;
4278;SDS011;2153;47.744;10.580;2023-02-15T03:18:12;10.60;;;2.50;;
4278;SDS011;2153;47.744;10.580;2023-02-15T03:20:41;11.30;;;2.60;;
4278;SDS011;2153;47.744;10.580;2023-02-15T03:23:10;10.93;;;2.50;;
4278;SDS011;2153;47.744;10.580;2023-02-15T03:25:41;11.27;;;2.70;;
4278;SDS011;2153;47.744;10.580;2023-02-15T03:28:11;12.13;;;2.83;;
4278;SDS011;2153;47.744;10.580;2023-02-15T03:30:42;11.07;;;2.63;;
4278;SDS011;2153;47.744;10.580;2023-02-15T03:33:11;11.07;;;2.57;;
4278;SDS011;2153;47.744;10.580;2023-02-15T03:35:44;10.77;;;2.40;;
4278;SDS011;2153;47.744;10.580;2023-02-15T03:38:17;10.60;;;2.30;;
4278;SDS011;2153;47.744;10.580;2023-02-15T03:40:48;11.70;;;2.97;;
4278;SDS011;2153;47.744;10.580;2023-02-15T03:43:39;11.10;;;2.70;;
4278;SDS011;2153;47.744;10.580;2023-02-15T03:46:15;10.77;;;2.27;;
4278;SDS011;2153;47.744;10.580;2023-02-15T03:48:49;10.50;;;2.10;;
4278;SDS011;2153;47.744;10.580;2023-02-15T03:51:21;10.27;;;2.00;;
4278;SDS011;2153;47.744;10.580;2023-02-15T03:54:01;12.13;;;2.47;;
4278;SDS011;2153;47.744;10.580;2023-02-15T03:56:31;9.10;;;1.83;;
4278;SDS011;2153;47.744;10.580;2023-02-15T03:59:00;11.73;;;2.97;;
4278;SDS011;2153;47.744;10.580;2023-02-15T04:01:46;10.13;;;2.20;;
4278;SDS011;2153;47.744;10.580;2023-02-15T04:04:35;10.50;;;2.27;;
4278;SDS011;2153;47.744;10.580;2023-02-15T04:07:05;10.97;;;2.03;;
4278;SDS011;2153;47.744;10.580;2023-02-15T04:09:33;10.77;;;2.30;;
4278;SDS011;2153;47.744;10.580;2023-02-15T04:12:18;11.90;;;2.13;;
4278;SDS011;2153;47.744;10.580;2023-02-15T04:14:45;10.07;;;2.23;;
4278;SDS011;2153;47.744;10.580;2023-02-15T04:17:30;10.07;;;2.33;;
4278;SDS011;2153;47.744;10.580;2023-02-15T04:19:56;11.27;;;2.73;;
4278;SDS011;2153;47.744;10.580;2023-02-15T04:22:42;16.70;;;2.87;;
4278;SDS011;2153;47.744;10.580;2023-02-15T04:25:26;11.40;;;2.20;;
4278;SDS011;2153;47.744;10.580;2023-02-15T04:27:53;11.07;;;2.90;;
4278;SDS011;2153;47.744;10.580;2023-02-15T04:30:21;9.87;;;1.90;;
4278;SDS011;2153;47.744;10.580;2023-02-15T04:32:48;10.13;;;2.37;;
4278;SDS011;2153;47.744;10.580;2023-02-15T04:35:16;10.40;;;1.97;;
4278;SDS011;2153;47.744;10.580;2023-02-15T04:37:44;10.03;;;2.07;;
4278;SDS011;2153;47.744;10.580;2023-02-15T04:40:11;10.77;;;2.07;;
4278;SDS011;2153;47.744;10.580;2023-02-15T04:42:39;11.30;;;2.67;;
4278;SDS011;2153;47.744;10.580;2023-02-15T04:45:06;10.37;;;2.50;;
4278;SDS011;2153;47.744;10.580;2023-02-15T04:47:33;9.37;;;1.90;;
4278;SDS011;2153;47.744;10.580;2023-02-15T04:50:00;10.40;;;2.40;;
4278;SDS011;2153;47.744;10.580;2023-02-15T04:52:27;10.60;;;2.40;;
4278;SDS011;2153;47.744;10.580;2023-02-15T04:54:56;9.80;;;2.30;;
4278;SDS011;2153;47.744;10.580;2023-02-15T04:57:22;9.90;;;2.10;;
4278;SDS011;2153;47.744;10.580;2023-02-15T04:59:49;12.13;;;2.50;;
4278;SDS011;2153;47.744;10.580;2023-02-15T05:02:16;10.20;;;2.10;;
4278;SDS011;2153;47.744;10.580;2023-02-15T05:04:42;11.00;;;3.30;;
4278;SDS011;2153;47.744;10.580;2023-02-15T05:07:09;10.00;;;2.20;;
4278;SDS011;2153;47.744;10.580;2023-02-15T05:09:36;12.60;;;3.20;;
4278;SDS011;2153;47.744;10.580;2023-02-15T05:12:04;10.40;;;2.40;;
4278;SDS011;2153;47.744;10.580;2023-02-15T05:14:31;11.73;;;2.60;;
4278;SDS011;2153;47.744;10.580;2023-02-15T05:16:57;9.27;;;1.60;;
4278;SDS011;2153;47.744;10.580;2023-02-15T05:19:28;10.43;;;2.00;;
4278;SDS011;2153;47.744;10.580;2023-02-15T05:21:55;11.83;;;2.50;;
4278;SDS011;2153;47.744;10.580;2023-02-15T05:24:21;10.47;;;2.70;;
4278;SDS011;2153;47.744;10.580;2023-02-15T05:27:08;16.03;;;4.57;;
4278;SDS011;2153;47.744;10.580;2023-02-15T05:29:54;13.97;;;5.23;;
4278;SDS011;2153;47.744;10.580;2023-02-15T05:32:21;11.47;;;3.13;;
4278;SDS011;2153;47.744;10.580;2023-02-15T05:34:47;12.60;;;2.83;;
4278;SDS011;2153;47.744;10.580;2023-02-15T05:37:14;10.37;;;2.90;;
4278;SDS011;2153;47.744;10.580;2023-02-15T05:39:41;10.20;;;2.40;;
4278;SDS011;2153;47.744;10.580;2023-02-15T05:42:09;9.33;;;2.10;;
4278;SDS011;2153;47.744;10.580;2023-02-15T05:44:36;9.60;;;2.00;;
4278;SDS011;2153;47.744;10.580;2023-02-15T05:47:02;10.10;;;1.93;;
4278;SDS011;2153;47.744;10.580;2023-02-15T05:49:32;10.10;;;1.90;;
4278;SDS011;2153;47.744;10.580;2023-02-15T05:51:58;12.47;;;2.20;;
4278;SDS011;2153;47.744;10.580;2023-02-15T05:54:25;11.00;;;2.83;;
4278;SDS011;2153;47.744;10.580;2023-02-15T05:56:52;10.33;;;1.90;;
4278;SDS011;2153;47.744;10.580;2023-02-15T05:59:20;10.50;;;2.13;;
4278;SDS011;2153;47.744;10.580;2023-02-15T06:01:47;9.87;;;2.37;;
4278;SDS011;2153;47.744;10.580;2023-02-15T06:04:13;9.70;;;1.57;;
4278;SDS011;2153;47.744;10.580;2023-02-15T06:06:40;9.70;;;2.10;;
4278;SDS011;2153;47.744;10.580;2023-02-15T06:09:07;11.30;;;2.30;;
4278;SDS011;2153;47.744;10.580;2023-02-15T06:11:34;12.80;;;2.77;;
4278;SDS011;2153;47.744;10.580;2023-02-15T06:14:00;10.83;;;2.80;;
4278;SDS011;2153;47.744;10.580;2023-02-15T06:16:29;11.43;;;2.60;;
4278;SDS011;2153;47.744;10.580;2023-02-15T06:18:56;11.90;;;2.40;;
4278;SDS011;2153;47.744;10.580;2023-02-15T06:21:24;9.90;;;2.13;;
4278;SDS011;2153;47.744;10.580;2023-02-15T06:23:50;10.60;;;2.43;;
4278;SDS011;2153;47.744;10.580;2023-02-15T06:26:17;10.63;;;2.37;;
4278;SDS011;2153;47.744;10.580;2023-02-15T06:28:44;10.57;;;2.47;;
4278;SDS011;2153;47.744;10.580;2023-02-15T06:31:10;11.03;;;2.60;;
4278;SDS011;2153;47.744;10.580;2023-02-15T06:33:38;9.83;;;1.73;;
4278;SDS011;2153;47.744;10.580;2023-02-15T06:36:05;9.20;;;2.03;;
4278;SDS011;2153;47.744;10.580;2023-02-15T06:38:32;10.70;;;2.20;;
4278;SDS011;2153;47.744;10.580;2023-02-15T06:40:59;10.57;;;2.37;;
4278;SDS011;2153;47.744;10.580;2023-02-15T06:43:25;10.20;;;2.50;;
4278;SDS011;2153;47.744;10.580;2023-02-15T06:45:52;10.60;;;2.90;;
4278;SDS011;2153;47.744;10.580;2023-02-15T06:48:19;10.00;;;2.40;;
4278;SDS011;2153;47.744;10.580;2023-02-15T06:50:47;10.50;;;2.10;;
4278;SDS011;2153;47.744;10.580;2023-02-15T06:53:14;15.03;;;2.83;;
4278;SDS011;2153;47.744;10.580;2023-02-15T06:55:41;10.43;;;2.37;;
4278;SDS011;2153;47.744;10.580;2023-02-15T06:58:07;10.97;;;2.50;;
4278;SDS011;2153;47.744;10.580;2023-02-15T07:00:34;9.90;;;2.17;;
4278;SDS011;2153;47.744;10.580;2023-02-15T07:03:01;10.53;;;2.47;;
4278;SDS011;2153;47.744;10.580;2023-02-15T07:05:28;9.77;;;2.30;;
4278;SDS011;2153;47.744;10.580;2023-02-15T07:07:57;10.73;;;2.17;;
4278;SDS011;2153;47.744;10.580;2023-02-15T07:10:24;10.30;;;1.90;;
4278;SDS011;2153;47.744;10.580;2023-02-15T07:12:51;10.03;;;1.90;;
4278;SDS011;2153;47.744;10.580;2023-02-15T07:15:17;10.07;;;1.90;;
4278;SDS011;2153;47.744;10.580;2023-02-15T07:17:46;12.10;;;2.50;;
4278;SDS011;2153;47.744;10.580;2023-02-15T07:20:14;11.17;;;2.10;;
4278;SDS011;2153;47.744;10.580;2023-02-15T07:22:42;10.30;;;2.00;;
4278;SDS011;2153;47.744;10.580;2023-02-15T07:25:11;9.10;;;1.37;;
4278;SDS011;2153;47.744;10.580;2023-02-15T07:27:38;10.30;;;1.83;;
4278;SDS011;2153;47.744;10.580;2023-02-15T07:30:06;10.90;;;2.30;;
4278;SDS011;2153;47.744;10.580;2023-02-15T07:32:33;10.00;;;1.60;;
4278;SDS011;2153;47.744;10.580;2023-02-15T07:35:01;10.50;;;2.00;;
4278;SDS011;2153;47.744;10.580;2023-02-15T07:37:28;11.43;;;1.77;;
4278;SDS011;2153;47.744;10.580;2023-02-15T07:39:55;11.60;;;1.93;;
4278;SDS011;2153;47.744;10.580;2023-02-15T07:42:23;9.63;;;1.40;;
4278;SDS011;2153;47.744;10.580;2023-02-15T07:44:49;12.07;;;1.87;;
4278;SDS011;2153;47.744;10.580;2023-02-15T07:47:17;10.80;;;2.00;;
4278;SDS011;2153;47.744;10.580;2023-02-15T07:49:44;11.00;;;2.00;;
4278;SDS011;2153;47.744;10.580;2023-02-15T07:52:11;10.13;;;1.70;;
4278;SDS011;2153;47.744;10.580;2023-02-15T07:54:37;11.03;;;1.90;;
4278;SDS011;2153;47.744;10.580;2023-02-15T07:57:04;12.37;;;2.40;;
4278;SDS011;2153;47.744;10.580;2023-02-15T07:59:32;11.73;;;2.30;;
4278;SDS011;2153;47.744;10.580;2023-02-15T08:01:59;12.60;;;1.93;;
4278;SDS011;2153;47.744;10.580;2023-02-15T08:04:25;13.40;;;1.80;;
4278;SDS011;2153;47.744;10.580;2023-02-15T08:06:52;13.20;;;2.93;;
4278;SDS011;2153;47.744;10.580;2023-02-15T08:09:20;13.20;;;2.47;;
4278;SDS011;2153;47.744;10.580;2023-02-15T08:11:47;13.73;;;2.73;;
4278;SDS011;2153;47.744;10.580;2023-02-15T08:14:15;12.60;;;2.40;;
4278;SDS011;2153;47.744;10.580;2023-02-15T08:16:45;19.30;;;3.67;;
4278;SDS011;2153;47.744;10.580;2023-02-15T08:19:13;16.20;;;3.57;;
4278;SDS011;2153;47.744;10.580;2023-02-15T08:21:41;17.57;;;3.83;;
4278;SDS011;2153;47.744;10.580;2023-02-15T08:24:10;16.20;;;3.80;;
4278;SDS011;2153;47.744;10.580;2023-02-15T08:26:38;14.80;;;3.87;;
4278;SDS011;2153;47.744;10.580;2023-02-15T08:29:06;16.57;;;3.87;;
4278;SDS011;2153;47.744;10.580;2023-02-15T08:31:34;15.63;;;3.53;;
4278;SDS011;2153;47.744;10.580;2023-02-15T08:34:04;15.87;;;4.00;;
4278;SDS011;2153;47.744;10.580;2023-02-15T08:36:30;17.03;;;4.00;;
4278;SDS011;2153;47.744;10.580;2023-02-15T08:38:58;14.43;;;3.50;;
4278;SDS011;2153;47.744;10.580;2023-02-15T08:41:26;17.90;;;4.10;;
4278;SDS011;2153;47.744;10.580;2023-02-15T08:43:54;15.20;;;3.33;;
4278;SDS011;2153;47.744;10.580;2023-02-15T08:46:23;14.50;;;3.33;;
4278;SDS011;2153;47.744;10.580;2023-02-15T08:48:52;18.47;;;4.13;;
4278;SDS011;2153;47.744;10.580;2023-02-15T08:51:21;15.17;;;3.30;;
4278;SDS011;2153;47.744;10.580;2023-02-15T08:53:50;15.87;;;3.90;;
4278;SDS011;2153;47.744;10.580;2023-02-15T08:56:20;15.73;;;3.53;;
4278;SDS011;2153;47.744;10.580;2023-02-15T08:58:47;15.63;;;3.60;;
4278;SDS011;2153;47.744;10.580;2023-02-15T09:01:15;14.23;;;3.03;;
4278;SDS011;2153;47.744;10.580;2023-02-15T09:03:45;15.47;;;3.30;;
4278;SDS011;2153;47.744;10.580;2023-02-15T09:06:12;13.57;;;2.67;;
4278;SDS011;2153;47.744;10.580;2023-02-15T09:08:41;15.00;;;3.40;;
4278;SDS011;2153;47.744;10.580;2023-02-15T09:11:09;16.47;;;3.33;;
4278;SDS011;2153;47.744;10.580;2023-02-15T09:13:37;19.50;;;3.50;;
4278;SDS011;2153;47.744;10.580;2023-02-15T09:16:05;14.20;;;3.30;;
4278;SDS011;2153;47.744;10.580;2023-02-15T09:18:34;13.70;;;2.60;;
4278;SDS011;2153;47.744;10.580;2023-02-15T09:21:04;13.73;;;2.60;;
4278;SDS011;2153;47.744;10.580;2023-02-15T09:23:34;15.70;;;2.90;;
4278;SDS011;2153;47.744;10.580;2023-02-15T09:26:03;18.33;;;2.90;;
4278;SDS011;2153;47.744;10.580;2023-02-15T09:28:31;14.03;;;2.93;;
4278;SDS011;2153;47.744;10.580;2023-02-15T09:31:08;15.93;;;3.17;;
4278;SDS011;2153;47.744;10.580;2023-02-15T09:41:01;20.53;;;3.73;;
4278;SDS011;2153;47.744;10.580;2023-02-15T09:43:42;19.10;;;6.13;;
4278;SDS011;2153;47.744;10.580;2023-02-15T09:46:24;21.83;;;7.30;;
4278;SDS011;2153;47.744;10.580;2023-02-15T09:49:02;17.83;;;5.07;;
4278;SDS011;2153;47.744;10.580;2023-02-15T09:51:41;15.70;;;3.83;;
4278;SDS011;2153;47.744;10.580;2023-02-15T09:54:21;28.60;;;6.37;;
4278;SDS011;2153;47.744;10.580;2023-02-15T09:57:00;18.50;;;5.33;;
4278;SDS011;2153;47.744;10.580;2023-02-15T09:59:38;16.30;;;3.87;;
4278;SDS011;2153;47.744;10.580;2023-02-15T10:02:20;19.30;;;3.30;;
4278;SDS011;2153;47.744;10.580;2023-02-15T10:05:05;12.50;;;2.30;;
4278;SDS011;2153;47.744;10.580;2023-02-15T10:07:46;14.00;;;2.87;;
4278;SDS011;2153;47.744;10.580;2023-02-15T10:10:28;14.20;;;2.30;;
4278;SDS011;2153;47.744;10.580;2023-02-15T10:13:07;12.77;;;2.27;;
4278;SDS011;2153;47.744;10.580;2023-02-15T10:15:48;13.90;;;2.27;;
4278;SDS011;2153;47.744;10.580;2023-02-15T10:18:31;12.20;;;2.27;;
4278;SDS011;2153;47.744;10.580;2023-02-15T10:21:07;14.40;;;2.50;;
4278;SDS011;2153;47.744;10.580;2023-02-15T10:23:48;14.30;;;2.03;;
4278;SDS011;2153;47.744;10.580;2023-02-15T10:26:26;11.87;;;1.80;;
4278;SDS011;2153;47.744;10.580;2023-02-15T10:28:59;11.80;;;1.77;;
4278;SDS011;2153;47.744;10.580;2023-02-15T10:31:34;26.87;;;2.07;;
4278;SDS011;2153;47.744;10.580;2023-02-15T10:34:09;27.43;;;2.40;;
4278;SDS011;2153;47.744;10.580;2023-02-15T10:36:46;14.03;;;2.00;;
4278;SDS011;2153;47.744;10.580;2023-02-15T10:39:26;12.77;;;1.93;;
4278;SDS011;2153;47.744;10.580;2023-02-15T10:42:04;12.20;;;2.10;;
4278;SDS011;2153;47.744;10.580;2023-02-15T10:44:41;11.50;;;1.73;;
4278;SDS011;2153;47.744;10.580;2023-02-15T10:47:31;12.40;;;2.13;;
4278;SDS011;2153;47.744;10.580;2023-02-15T10:50:22;12.97;;;2.40;;
4278;SDS011;2153;47.744;10.580;2023-02-15T10:52:57;12.57;;;2.43;;
4278;SDS011;2153;47.744;10.580;2023-02-15T10:55:38;15.23;;;2.17;;
4278;SDS011;2153;47.744;10.580;2023-02-15T10:58:14;13.30;;;2.63;;
4278;SDS011;2153;47.744;10.580;2023-02-15T11:00:52;12.90;;;2.43;;
4278;SDS011;2153;47.744;10.580;2023-02-15T11:03:33;21.20;;;2.13;;
4278;SDS011;2153;47.744;10.580;2023-02-15T11:06:15;15.93;;;2.70;;
4278;SDS011;2153;47.744;10.580;2023-02-15T11:08:45;21.70;;;2.73;;
4278;SDS011;2153;47.744;10.580;2023-02-15T11:11:15;13.23;;;2.40;;
4278;SDS011;2153;47.744;10.580;2023-02-15T11:13:48;14.73;;;2.30;;
4278;SDS011;2153;47.744;10.580;2023-02-15T11:16:21;12.43;;;2.07;;
4278;SDS011;2153;47.744;10.580;2023-02-15T11:18:53;12.40;;;2.30;;
4278;SDS011;2153;47.744;10.580;2023-02-15T11:21:22;16.50;;;1.80;;
4278;SDS011;2153;47.744;10.580;2023-02-15T11:23:52;17.40;;;2.03;;
4278;SDS011;2153;47.744;10.580;2023-02-15T11:26:21;12.33;;;1.80;;
4278;SDS011;2153;47.744;10.580;2023-02-15T11:28:55;13.43;;;2.10;;
4278;SDS011;2153;47.744;10.580;2023-02-15T11:31:29;12.43;;;1.67;;
4278;SDS011;2153;47.744;10.580;2023-02-15T11:34:12;16.03;;;1.87;;
4278;SDS011;2153;47.744;10.580;2023-02-15T11:36:43;21.40;;;2.50;;
4278;SDS011;2153;47.744;10.580;2023-02-15T11:56:42;17.00;;;2.23;;
4278;SDS011;2153;47.744;10.580;2023-02-15T11:59:10;13.60;;;1.90;;
4278;SDS011;2153;47.744;10.580;2023-02-15T12:01:44;18.83;;;1.53;;
4278;SDS011;2153;47.744;10.580;2023-02-15T12:04:14;13.27;;;1.90;;
4278;SDS011;2153;47.744;10.580;2023-02-15T12:06:49;24.50;;;3.20;;
4278;SDS011;2153;47.744;10.580;2023-02-15T12:09:23;21.70;;;1.63;;
4278;SDS011;2153;47.744;10.580;2023-02-15T12:11:57;12.80;;;1.33;;
4278;SDS011;2153;47.744;10.580;2023-02-15T12:14:50;11.73;;;1.30;;
4278;SDS011;2153;47.744;10.580;2023-02-15T12:17:18;12.13;;;1.27;;
4278;SDS011;2153;47.744;10.580;2023-02-15T12:19:49;12.20;;;1.80;;
4278;SDS011;2153;47.744;10.580;2023-02-15T12:22:19;12.90;;;1.77;;
4278;SDS011;2153;47.744;10.580;2023-02-15T12:24:50;13.83;;;1.53;;
4278;SDS011;2153;47.744;10.580;2023-02-15T12:27:19;14.33;;;1.40;;
4278;SDS011;2153;47.744;10.580;2023-02-15T12:29:49;12.70;;;1.50;;
4278;SDS011;2153;47.744;10.580;2023-02-15T12:32:19;11.40;;;1.40;;
4278;SDS011;2153;47.744;10.580;2023-02-15T12:34:49;11.40;;;1.50;;
4278;SDS011;2153;47.744;10.580;2023-02-15T12:37:18;12.20;;;1.13;;
4278;SDS011;2153;47.744;10.580;2023-02-15T12:39:52;18.10;;;1.60;;
4278;SDS011;2153;47.744;10.580;2023-02-15T12:42:21;12.77;;;1.43;;
4278;SDS011;2153;47.744;10.580;2023-02-15T12:44:59;12.70;;;1.27;;
4278;SDS011;2153;47.744;10.580;2023-02-15T12:47:27;11.30;;;1.40;;
4278;SDS011;2153;47.744;10.580;2023-02-15T12:50:10;12.30;;;1.67;;
4278;SDS011;2153;47.744;10.580;2023-02-15T12:52:43;13.97;;;1.30;;
4278;SDS011;2153;47.744;10.580;2023-02-15T12:55:17;14.20;;;1.70;;
4278;SDS011;2153;47.744;10.580;2023-02-15T12:57:46;10.97;;;0.90;;
4278;SDS011;2153;47.744;10.580;2023-02-15T13:00:27;11.87;;;1.40;;
4278;SDS011;2153;47.744;10.580;2023-02-15T13:02:56;19.73;;;1.50;;
4278;SDS011;2153;47.744;10.580;2023-02-15T13:05:26;11.20;;;1.60;;
4278;SDS011;2153;47.744;10.580;2023-02-15T13:07:58;13.90;;;1.40;;
4278;SDS011;2153;47.744;10.580;2023-02-15T13:10:29;12.30;;;1.30;;
4278;SDS011;2153;47.744;10.580;2023-02-15T13:12:59;11.13;;;1.17;;
4278;SDS011;2153;47.744;10.580;2023-02-15T13:15:34;12.63;;;1.10;;
4278;SDS011;2153;47.744;10.580;2023-02-15T13:18:03;10.60;;;0.97;;
4278;SDS011;2153;47.744;10.580;2023-02-15T13:20:36;13.70;;;1.50;;
4278;SDS011;2153;47.744;10.580;2023-02-15T13:23:05;13.63;;;1.67;;
4278;SDS011;2153;47.744;10.580;2023-02-15T13:25:40;11.27;;;1.37;;
4278;SDS011;2153;47.744;10.580;2023-02-15T13:28:15;16.13;;;1.97;;
4278;SDS011;2153;47.744;10.580;2023-02-15T13:30:46;11.37;;;1.30;;
4278;SDS011;2153;47.744;10.580;2023-02-15T13:33:16;12.43;;;1.53;;
4278;SDS011;2153;47.744;10.580;2023-02-15T13:35:53;11.60;;;1.13;;
4278;SDS011;2153;47.744;10.580;2023-02-15T13:41:13;11.60;;;1.07;;
4278;SDS011;2153;47.744;10.580;2023-02-15T13:43:45;11.13;;;1.10;;
4278;SDS011;2153;47.744;10.580;2023-02-15T13:46:26;11.60;;;1.20;;
4278;SDS011;2153;47.744;10.580;2023-02-15T13:49:09;11.60;;;1.30;;
4278;SDS011;2153;47.744;10.580;2023-02-15T13:51:45;11.70;;;1.20;;
4278;SDS011;2153;47.744;10.580;2023-02-15T13:54:33;12.80;;;1.10;;
4278;SDS011;2153;47.744;10.580;2023-02-15T13:57:34;11.80;;;1.20;;
4278;SDS011;2153;47.744;10.580;2023-02-15T14:00:16;10.70;;;1.00;;
4278;SDS011;2153;47.744;10.580;2023-02-15T14:06:00;12.80;;;1.50;;
4278;SDS011;2153;47.744;10.580;2023-02-15T14:08:43;11.57;;;1.17;;
4278;SDS011;2153;47.744;10.580;2023-02-15T14:11:26;26.37;;;7.40;;
4278;SDS011;2153;47.744;10.580;2023-02-15T14:16:54;11.83;;;1.50;;
4278;SDS011;2153;47.744;10.580;2023-02-15T14:19:29;14.47;;;1.80;;
4278;SDS011;2153;47.744;10.580;2023-02-15T14:22:02;12.20;;;1.50;;
4278;SDS011;2153;47.744;10.580;2023-02-15T14:24:37;13.57;;;1.27;;
4278;SDS011;2153;47.744;10.580;2023-02-15T14:27:10;11.70;;;1.50;;
4278;SDS011;2153;47.744;10.580;2023-02-15T14:29:47;12.70;;;1.70;;
4278;SDS011;2153;47.744;10.580;2023-02-15T14:32:19;13.57;;;1.50;;
4278;SDS011;2153;47.744;10.580;2023-02-15T14:34:53;10.90;;;1.27;;
4278;SDS011;2153;47.744;10.580;2023-02-15T14:37:33;11.70;;;1.80;;
4278;SDS011;2153;47.744;10.580;2023-02-15T14:40:08;13.03;;;1.43;;
4278;SDS011;2153;47.744;10.580;2023-02-15T14:43:02;11.47;;;1.23;;
4278;SDS011;2153;47.744;10.580;2023-02-15T14:45:35;11.20;;;1.13;;
4278;SDS011;2153;47.744;10.580;2023-02-15T14:48:09;11.63;;;1.27;;
4278;SDS011;2153;47.744;10.580;2023-02-15T14:50:44;12.93;;;1.67;;
4278;SDS011;2153;47.744;10.580;2023-02-15T14:53:15;12.43;;;1.13;;
4278;SDS011;2153;47.744;10.580;2023-02-15T14:56:16;15.37;;;1.83;;
4278;SDS011;2153;47.744;10.580;2023-02-15T14:58:59;14.63;;;1.70;;
4278;SDS011;2153;47.744;10.580;2023-02-15T15:01:39;11.70;;;1.43;;
4278;SDS011;2153;47.744;10.580;2023-02-15T15:04:07;14.47;;;1.90;;
4278;SDS011;2153;47.744;10.580;2023-02-15T15:06:37;16.03;;;1.40;;
4278;SDS011;2153;47.744;10.580;2023-02-15T15:09:10;13.57;;;1.60;;
4278;SDS011;2153;47.744;10.580;2023-02-15T15:11:43;15.10;;;1.83;;
4278;SDS011;2153;47.744;10.580;2023-02-15T15:14:37;12.70;;;1.37;;
4278;SDS011;2153;47.744;10.580;2023-02-15T15:17:10;15.00;;;1.87;;
4278;SDS011;2153;47.744;10.580;2023-02-15T15:22:40;14.40;;;2.10;;
4278;SDS011;2153;47.744;10.580;2023-02-15T15:25:09;18.50;;;2.77;;
4278;SDS011;2153;47.744;10.580;2023-02-15T15:27:57;22.43;;;2.97;;
4278;SDS011;2153;47.744;10.580;2023-02-15T15:33:25;26.80;;;8.50;;
4278;SDS011;2153;47.744;10.580;2023-02-15T15:36:23;23.97;;;7.00;;
4278;SDS011;2153;47.744;10.580;2023-02-15T15:39:04;43.30;;;13.23;;
4278;SDS011;2153;47.744;10.580;2023-02-15T15:41:47;23.20;;;6.80;;
4278;SDS011;2153;47.744;10.580;2023-02-15T15:44:26;18.00;;;5.10;;
4278;SDS011;2153;47.744;10.580;2023-02-15T15:47:11;18.47;;;5.70;;
4278;SDS011;2153;47.744;10.580;2023-02-15T15:49:48;18.00;;;4.57;;
4278;SDS011;2153;47.744;10.580;2023-02-15T15:52:16;21.60;;;5.57;;
4278;SDS011;2153;47.744;10.580;2023-02-15T15:54:46;18.00;;;4.90;;
4278;SDS011;2153;47.744;10.580;2023-02-15T15:57:30;16.83;;;4.63;;
4278;SDS011;2153;47.744;10.580;2023-02-15T16:00:00;21.60;;;4.33;;